sensor_id;sensor_type;location;lat;lon;timestamp;P1;durP1;ratioP1;P2;durP2;ratioP2
80637;SDS011;69991;51.760;19.528;2024-01-30T00:01:11;21.50;;;9.10;;
80637;SDS011;69991;51.760;19.528;2024-01-30T00:03:49;19.00;;;8.80;;
80637;SDS011;69991;51.760;19.528;2024-01-30T00:06:19;17.00;;;7.40;;
80637;SDS011;69991;51.760;19.528;2024-01-30T00:08:52;19.00;;;8.10;;
80637;SDS011;69991;51.760;19.528;2024-01-30T00:11:22;18.30;;;8.10;;
80637;SDS011;69991;51.760;19.528;2024-01-30T00:13:51;17.50;;;8.00;;
80637;SDS011;69991;51.760;19.528;2024-01-30T00:16:21;17.80;;;8.50;;
80637;SDS011;69991;51.760;19.528;2024-01-30T00:18:51;17.50;;;8.20;;
80637;SDS011;69991;51.760;19.528;2024-01-30T00:21:21;17.10;;;8.30;;
80637;SDS011;69991;51.760;19.528;2024-01-30T00:23:50;16.60;;;7.00;;
80637;SDS011;69991;51.760;19.528;2024-01-30T00:26:19;20.70;;;7.70;;
80637;SDS011;69991;51.760;19.528;2024-01-30T00:28:48;16.20;;;7.80;;
80637;SDS011;69991;51.760;19.528;2024-01-30T00:31:17;18.40;;;7.60;;
80637;SDS011;69991;51.760;19.528;2024-01-30T00:33:46;15.60;;;7.00;;
80637;SDS011;69991;51.760;19.528;2024-01-30T00:36:15;16.20;;;7.10;;
80637;SDS011;69991;51.760;19.528;2024-01-30T00:38:44;17.10;;;7.20;;
80637;SDS011;69991;51.760;19.528;2024-01-30T00:41:13;18.70;;;7.60;;
80637;SDS011;69991;51.760;19.528;2024-01-30T00:43:42;19.00;;;7.20;;
80637;SDS011;69991;51.760;19.528;2024-01-30T00:46:11;16.70;;;7.70;;
80637;SDS011;69991;51.760;19.528;2024-01-30T00:48:40;15.30;;;7.10;;
80637;SDS011;69991;51.760;19.528;2024-01-30T00:51:09;16.50;;;7.10;;
80637;SDS011;69991;51.760;19.528;2024-01-30T00:53:38;14.50;;;6.60;;
80637;SDS011;69991;51.760;19.528;2024-01-30T00:56:07;16.30;;;7.30;;
80637;SDS011;69991;51.760;19.528;2024-01-30T00:58:36;19.20;;;9.00;;
80637;SDS011;69991;51.760;19.528;2024-01-30T01:01:05;20.80;;;8.20;;
80637;SDS011;69991;51.760;19.528;2024-01-30T01:03:36;20.60;;;8.30;;
80637;SDS011;69991;51.760;19.528;2024-01-30T01:06:05;21.50;;;8.40;;
80637;SDS011;69991;51.760;19.528;2024-01-30T01:08:34;17.60;;;8.00;;
80637;SDS011;69991;51.760;19.528;2024-01-30T01:11:03;18.20;;;7.80;;
80637;SDS011;69991;51.760;19.528;2024-01-30T01:13:32;16.80;;;6.20;;
80637;SDS011;69991;51.760;19.528;2024-01-30T01:16:01;17.90;;;7.90;;
80637;SDS011;69991;51.760;19.528;2024-01-30T01:18:30;15.50;;;7.10;;
80637;SDS011;69991;51.760;19.528;2024-01-30T01:20:59;17.20;;;7.20;;
80637;SDS011;69991;51.760;19.528;2024-01-30T01:23:29;16.00;;;6.10;;
80637;SDS011;69991;51.760;19.528;2024-01-30T01:25:58;16.70;;;7.10;;
80637;SDS011;69991;51.760;19.528;2024-01-30T01:28:29;15.40;;;6.70;;
80637;SDS011;69991;51.760;19.528;2024-01-30T01:30:58;17.80;;;7.00;;
80637;SDS011;69991;51.760;19.528;2024-01-30T01:33:34;13.20;;;5.70;;
80637;SDS011;69991;51.760;19.528;2024-01-30T01:36:03;14.70;;;6.00;;
80637;SDS011;69991;51.760;19.528;2024-01-30T01:38:32;13.80;;;5.60;;
80637;SDS011;69991;51.760;19.528;2024-01-30T01:41:01;14.10;;;5.70;;
80637;SDS011;69991;51.760;19.528;2024-01-30T01:43:30;13.40;;;5.50;;
80637;SDS011;69991;51.760;19.528;2024-01-30T01:45:59;15.80;;;5.80;;
80637;SDS011;69991;51.760;19.528;2024-01-30T01:48:30;13.70;;;5.70;;
80637;SDS011;69991;51.760;19.528;2024-01-30T01:50:59;12.60;;;5.10;;
80637;SDS011;69991;51.760;19.528;2024-01-30T01:53:29;13.90;;;5.60;;
80637;SDS011;69991;51.760;19.528;2024-01-30T01:55:57;17.10;;;7.00;;
80637;SDS011;69991;51.760;19.528;2024-01-30T01:58:28;15.20;;;7.90;;
80637;SDS011;69991;51.760;19.528;2024-01-30T02:00:58;17.90;;;7.40;;
80637;SDS011;69991;51.760;19.528;2024-01-30T02:03:28;16.70;;;6.90;;
80637;SDS011;69991;51.760;19.528;2024-01-30T02:05:57;16.40;;;6.10;;
80637;SDS011;69991;51.760;19.528;2024-01-30T02:08:26;14.50;;;6.60;;
80637;SDS011;69991;51.760;19.528;2024-01-30T02:10:55;15.10;;;6.00;;
80637;SDS011;69991;51.760;19.528;2024-01-30T02:13:24;15.40;;;6.60;;
80637;SDS011;69991;51.760;19.528;2024-01-30T02:15:53;16.10;;;6.20;;
80637;SDS011;69991;51.760;19.528;2024-01-30T02:18:23;14.10;;;7.10;;
80637;SDS011;69991;51.760;19.528;2024-01-30T02:20:53;24.80;;;9.90;;
80637;SDS011;69991;51.760;19.528;2024-01-30T02:23:23;14.20;;;6.10;;
80637;SDS011;69991;51.760;19.528;2024-01-30T02:25:53;14.70;;;6.10;;
80637;SDS011;69991;51.760;19.528;2024-01-30T02:28:22;12.80;;;5.10;;
80637;SDS011;69991;51.760;19.528;2024-01-30T02:30:52;9.70;;;4.40;;
80637;SDS011;69991;51.760;19.528;2024-01-30T02:33:20;11.00;;;5.20;;
80637;SDS011;69991;51.760;19.528;2024-01-30T02:35:53;13.80;;;5.80;;
80637;SDS011;69991;51.760;19.528;2024-01-30T02:38:22;14.10;;;5.30;;
80637;SDS011;69991;51.760;19.528;2024-01-30T02:40:52;11.80;;;4.60;;
80637;SDS011;69991;51.760;19.528;2024-01-30T02:43:21;13.60;;;5.00;;
80637;SDS011;69991;51.760;19.528;2024-01-30T02:45:50;12.10;;;4.90;;
80637;SDS011;69991;51.760;19.528;2024-01-30T02:48:19;10.10;;;4.30;;
80637;SDS011;69991;51.760;19.528;2024-01-30T02:50:48;14.20;;;6.00;;
80637;SDS011;69991;51.760;19.528;2024-01-30T02:53:17;14.30;;;6.10;;
80637;SDS011;69991;51.760;19.528;2024-01-30T02:55:46;11.90;;;5.80;;
80637;SDS011;69991;51.760;19.528;2024-01-30T02:58:15;12.80;;;5.30;;
80637;SDS011;69991;51.760;19.528;2024-01-30T03:00:44;11.50;;;5.40;;
80637;SDS011;69991;51.760;19.528;2024-01-30T03:03:13;13.90;;;5.90;;
80637;SDS011;69991;51.760;19.528;2024-01-30T03:05:42;10.90;;;5.30;;
80637;SDS011;69991;51.760;19.528;2024-01-30T03:08:11;12.30;;;4.80;;
80637;SDS011;69991;51.760;19.528;2024-01-30T03:10:41;13.50;;;5.90;;
80637;SDS011;69991;51.760;19.528;2024-01-30T03:13:10;14.30;;;6.10;;
80637;SDS011;69991;51.760;19.528;2024-01-30T03:15:39;10.30;;;5.30;;
80637;SDS011;69991;51.760;19.528;2024-01-30T03:18:08;11.80;;;5.10;;
80637;SDS011;69991;51.760;19.528;2024-01-30T03:20:37;10.90;;;4.50;;
80637;SDS011;69991;51.760;19.528;2024-01-30T03:23:07;9.40;;;4.10;;
80637;SDS011;69991;51.760;19.528;2024-01-30T03:25:36;11.30;;;4.40;;
80637;SDS011;69991;51.760;19.528;2024-01-30T03:28:05;8.10;;;4.00;;
80637;SDS011;69991;51.760;19.528;2024-01-30T03:30:35;7.90;;;3.70;;
80637;SDS011;69991;51.760;19.528;2024-01-30T03:33:04;8.50;;;3.90;;
80637;SDS011;69991;51.760;19.528;2024-01-30T03:35:33;10.20;;;3.70;;
80637;SDS011;69991;51.760;19.528;2024-01-30T03:38:02;10.10;;;3.80;;
80637;SDS011;69991;51.760;19.528;2024-01-30T03:40:31;10.70;;;4.70;;
80637;SDS011;69991;51.760;19.528;2024-01-30T03:43:00;12.90;;;5.30;;
80637;SDS011;69991;51.760;19.528;2024-01-30T03:45:29;11.30;;;4.90;;
80637;SDS011;69991;51.760;19.528;2024-01-30T03:47:58;10.10;;;4.60;;
80637;SDS011;69991;51.760;19.528;2024-01-30T03:50:27;11.20;;;4.60;;
80637;SDS011;69991;51.760;19.528;2024-01-30T03:52:57;11.60;;;5.20;;
80637;SDS011;69991;51.760;19.528;2024-01-30T03:55:26;12.60;;;4.70;;
80637;SDS011;69991;51.760;19.528;2024-01-30T03:57:55;10.60;;;4.60;;
80637;SDS011;69991;51.760;19.528;2024-01-30T04:00:23;10.70;;;4.10;;
80637;SDS011;69991;51.760;19.528;2024-01-30T04:02:52;8.80;;;4.30;;
80637;SDS011;69991;51.760;19.528;2024-01-30T04:05:22;8.80;;;3.80;;
80637;SDS011;69991;51.760;19.528;2024-01-30T04:07:51;7.70;;;3.80;;
80637;SDS011;69991;51.760;19.528;2024-01-30T04:10:20;10.00;;;4.00;;
80637;SDS011;69991;51.760;19.528;2024-01-30T04:12:50;7.50;;;3.10;;
80637;SDS011;69991;51.760;19.528;2024-01-30T04:15:20;8.20;;;3.50;;
80637;SDS011;69991;51.760;19.528;2024-01-30T04:17:49;8.20;;;3.80;;
80637;SDS011;69991;51.760;19.528;2024-01-30T04:20:18;7.20;;;3.50;;
80637;SDS011;69991;51.760;19.528;2024-01-30T04:22:47;9.90;;;3.50;;
80637;SDS011;69991;51.760;19.528;2024-01-30T04:25:16;9.90;;;3.40;;
80637;SDS011;69991;51.760;19.528;2024-01-30T04:27:45;8.70;;;3.40;;
80637;SDS011;69991;51.760;19.528;2024-01-30T04:30:14;10.70;;;4.40;;
80637;SDS011;69991;51.760;19.528;2024-01-30T04:32:43;11.30;;;4.80;;
80637;SDS011;69991;51.760;19.528;2024-01-30T04:35:13;11.70;;;4.50;;
80637;SDS011;69991;51.760;19.528;2024-01-30T04:37:42;10.60;;;4.30;;
80637;SDS011;69991;51.760;19.528;2024-01-30T04:40:11;10.50;;;4.40;;
80637;SDS011;69991;51.760;19.528;2024-01-30T04:42:40;10.50;;;4.10;;
80637;SDS011;69991;51.760;19.528;2024-01-30T04:45:09;9.50;;;3.70;;
80637;SDS011;69991;51.760;19.528;2024-01-30T04:47:38;7.40;;;3.80;;
80637;SDS011;69991;51.760;19.528;2024-01-30T04:50:09;7.70;;;3.30;;
80637;SDS011;69991;51.760;19.528;2024-01-30T04:52:38;9.70;;;3.60;;
80637;SDS011;69991;51.760;19.528;2024-01-30T04:55:07;9.10;;;3.90;;
80637;SDS011;69991;51.760;19.528;2024-01-30T04:57:36;7.60;;;3.30;;
80637;SDS011;69991;51.760;19.528;2024-01-30T05:00:06;6.10;;;2.80;;
80637;SDS011;69991;51.760;19.528;2024-01-30T05:02:35;10.60;;;3.40;;
80637;SDS011;69991;51.760;19.528;2024-01-30T05:05:05;7.40;;;3.50;;
80637;SDS011;69991;51.760;19.528;2024-01-30T05:07:34;8.50;;;3.20;;
80637;SDS011;69991;51.760;19.528;2024-01-30T05:10:03;7.40;;;2.90;;
80637;SDS011;69991;51.760;19.528;2024-01-30T05:12:35;8.50;;;3.80;;
80637;SDS011;69991;51.760;19.528;2024-01-30T05:15:04;10.50;;;4.60;;
80637;SDS011;69991;51.760;19.528;2024-01-30T05:17:33;9.50;;;4.00;;
80637;SDS011;69991;51.760;19.528;2024-01-30T05:20:02;10.30;;;4.30;;
80637;SDS011;69991;51.760;19.528;2024-01-30T05:22:33;10.70;;;4.30;;
80637;SDS011;69991;51.760;19.528;2024-01-30T05:25:02;9.60;;;4.00;;
80637;SDS011;69991;51.760;19.528;2024-01-30T05:27:32;8.00;;;3.90;;
80637;SDS011;69991;51.760;19.528;2024-01-30T05:30:01;9.70;;;4.30;;
80637;SDS011;69991;51.760;19.528;2024-01-30T05:32:30;8.80;;;4.20;;
80637;SDS011;69991;51.760;19.528;2024-01-30T05:35:00;8.60;;;3.60;;
80637;SDS011;69991;51.760;19.528;2024-01-30T05:37:29;9.90;;;4.40;;
80637;SDS011;69991;51.760;19.528;2024-01-30T05:39:58;9.90;;;3.90;;
80637;SDS011;69991;51.760;19.528;2024-01-30T05:42:27;10.40;;;4.40;;
80637;SDS011;69991;51.760;19.528;2024-01-30T05:44:56;7.80;;;3.60;;
80637;SDS011;69991;51.760;19.528;2024-01-30T05:47:25;9.90;;;3.90;;
80637;SDS011;69991;51.760;19.528;2024-01-30T05:49:54;6.90;;;3.10;;
80637;SDS011;69991;51.760;19.528;2024-01-30T05:52:23;9.20;;;3.60;;
80637;SDS011;69991;51.760;19.528;2024-01-30T05:54:53;11.50;;;3.60;;
80637;SDS011;69991;51.760;19.528;2024-01-30T05:57:21;8.30;;;3.40;;
80637;SDS011;69991;51.760;19.528;2024-01-30T05:59:50;10.20;;;4.30;;
80637;SDS011;69991;51.760;19.528;2024-01-30T06:02:20;10.80;;;5.40;;
80637;SDS011;69991;51.760;19.528;2024-01-30T06:04:49;10.50;;;5.00;;
80637;SDS011;69991;51.760;19.528;2024-01-30T06:07:18;10.40;;;4.80;;
80637;SDS011;69991;51.760;19.528;2024-01-30T06:09:47;10.60;;;4.50;;
80637;SDS011;69991;51.760;19.528;2024-01-30T06:12:16;12.40;;;4.50;;
80637;SDS011;69991;51.760;19.528;2024-01-30T06:41:36;7.90;;;3.70;;
80637;SDS011;69991;51.760;19.528;2024-01-30T06:44:04;9.10;;;3.20;;
80637;SDS011;69991;51.760;19.528;2024-01-30T06:46:35;10.20;;;4.00;;
80637;SDS011;69991;51.760;19.528;2024-01-30T06:49:04;12.50;;;5.10;;
80637;SDS011;69991;51.760;19.528;2024-01-30T06:51:33;12.90;;;5.50;;
80637;SDS011;69991;51.760;19.528;2024-01-30T06:54:02;14.60;;;5.70;;
80637;SDS011;69991;51.760;19.528;2024-01-30T06:56:31;13.50;;;5.60;;
80637;SDS011;69991;51.760;19.528;2024-01-30T06:59:00;11.30;;;5.00;;
80637;SDS011;69991;51.760;19.528;2024-01-30T07:01:29;13.00;;;5.70;;
80637;SDS011;69991;51.760;19.528;2024-01-30T07:03:59;12.50;;;6.00;;
80637;SDS011;69991;51.760;19.528;2024-01-30T07:06:28;10.70;;;4.80;;
80637;SDS011;69991;51.760;19.528;2024-01-30T07:08:57;9.00;;;4.40;;
80637;SDS011;69991;51.760;19.528;2024-01-30T07:11:26;10.20;;;4.00;;
80637;SDS011;69991;51.760;19.528;2024-01-30T07:13:56;10.50;;;5.60;;
80637;SDS011;69991;51.760;19.528;2024-01-30T07:16:25;11.50;;;4.90;;
80637;SDS011;69991;51.760;19.528;2024-01-30T07:18:54;12.30;;;4.70;;
80637;SDS011;69991;51.760;19.528;2024-01-30T07:21:24;9.90;;;5.10;;
80637;SDS011;69991;51.760;19.528;2024-01-30T07:23:56;10.10;;;4.50;;
80637;SDS011;69991;51.760;19.528;2024-01-30T07:26:26;11.30;;;4.30;;
80637;SDS011;69991;51.760;19.528;2024-01-30T07:28:55;10.00;;;3.90;;
80637;SDS011;69991;51.760;19.528;2024-01-30T07:31:24;10.50;;;4.80;;
80637;SDS011;69991;51.760;19.528;2024-01-30T07:33:53;11.00;;;4.80;;
80637;SDS011;69991;51.760;19.528;2024-01-30T07:36:23;10.90;;;4.10;;
80637;SDS011;69991;51.760;19.528;2024-01-30T07:38:52;9.60;;;4.10;;
80637;SDS011;69991;51.760;19.528;2024-01-30T07:41:23;9.50;;;3.70;;
80637;SDS011;69991;51.760;19.528;2024-01-30T07:43:54;10.00;;;4.80;;
80637;SDS011;69991;51.760;19.528;2024-01-30T07:46:22;12.20;;;5.50;;
80637;SDS011;69991;51.760;19.528;2024-01-30T07:48:51;12.70;;;5.50;;
80637;SDS011;69991;51.760;19.528;2024-01-30T07:51:23;10.90;;;5.00;;
80637;SDS011;69991;51.760;19.528;2024-01-30T07:53:52;9.50;;;4.70;;
80637;SDS011;69991;51.760;19.528;2024-01-30T07:56:21;10.00;;;5.00;;
80637;SDS011;69991;51.760;19.528;2024-01-30T07:58:50;10.40;;;4.60;;
80637;SDS011;69991;51.760;19.528;2024-01-30T08:01:19;12.70;;;5.60;;
80637;SDS011;69991;51.760;19.528;2024-01-30T08:03:48;13.30;;;5.50;;
80637;SDS011;69991;51.760;19.528;2024-01-30T08:06:17;21.10;;;9.90;;
80637;SDS011;69991;51.760;19.528;2024-01-30T08:08:46;10.90;;;5.10;;
80637;SDS011;69991;51.760;19.528;2024-01-30T08:11:15;11.10;;;5.00;;
80637;SDS011;69991;51.760;19.528;2024-01-30T08:13:44;8.00;;;3.40;;
80637;SDS011;69991;51.760;19.528;2024-01-30T08:16:13;10.80;;;4.60;;
80637;SDS011;69991;51.760;19.528;2024-01-30T08:18:43;9.00;;;4.60;;
80637;SDS011;69991;51.760;19.528;2024-01-30T08:21:12;9.20;;;4.50;;
80637;SDS011;69991;51.760;19.528;2024-01-30T08:23:41;9.20;;;4.70;;
80637;SDS011;69991;51.760;19.528;2024-01-30T08:26:11;11.40;;;4.90;;
80637;SDS011;69991;51.760;19.528;2024-01-30T08:28:41;11.60;;;4.50;;
80637;SDS011;69991;51.760;19.528;2024-01-30T08:31:10;11.20;;;4.50;;
80637;SDS011;69991;51.760;19.528;2024-01-30T08:33:40;9.60;;;4.40;;
80637;SDS011;69991;51.760;19.528;2024-01-30T08:36:11;9.00;;;3.30;;
80637;SDS011;69991;51.760;19.528;2024-01-30T08:38:40;12.90;;;6.10;;
80637;SDS011;69991;51.760;19.528;2024-01-30T08:41:09;9.20;;;4.10;;
80637;SDS011;69991;51.760;19.528;2024-01-30T09:07:25;11.70;;;5.60;;
80637;SDS011;69991;51.760;19.528;2024-01-30T09:09:54;13.00;;;5.00;;
80637;SDS011;69991;51.760;19.528;2024-01-30T09:12:23;8.80;;;4.30;;
80637;SDS011;69991;51.760;19.528;2024-01-30T09:14:52;8.60;;;4.50;;
80637;SDS011;69991;51.760;19.528;2024-01-30T09:17:21;11.60;;;4.50;;
80637;SDS011;69991;51.760;19.528;2024-01-30T09:19:50;13.00;;;5.40;;
80637;SDS011;69991;51.760;19.528;2024-01-30T09:22:19;10.10;;;4.60;;
80637;SDS011;69991;51.760;19.528;2024-01-30T09:24:48;11.20;;;5.00;;
80637;SDS011;69991;51.760;19.528;2024-01-30T09:27:17;10.80;;;4.30;;
80637;SDS011;69991;51.760;19.528;2024-01-30T09:29:46;9.80;;;4.90;;
80637;SDS011;69991;51.760;19.528;2024-01-30T09:32:15;10.90;;;4.90;;
80637;SDS011;69991;51.760;19.528;2024-01-30T09:34:44;9.90;;;4.70;;
80637;SDS011;69991;51.760;19.528;2024-01-30T09:37:13;8.80;;;4.40;;
80637;SDS011;69991;51.760;19.528;2024-01-30T09:39:44;9.00;;;4.00;;
80637;SDS011;69991;51.760;19.528;2024-01-30T09:45:03;13.00;;;4.70;;
80637;SDS011;69991;51.760;19.528;2024-01-30T09:47:37;9.40;;;4.40;;
80637;SDS011;69991;51.760;19.528;2024-01-30T09:50:12;9.40;;;4.10;;
80637;SDS011;69991;51.760;19.528;2024-01-30T09:52:42;9.80;;;5.00;;
80637;SDS011;69991;51.760;19.528;2024-01-30T09:55:12;12.70;;;5.30;;
80637;SDS011;69991;51.760;19.528;2024-01-30T09:57:42;9.30;;;4.60;;
80637;SDS011;69991;51.760;19.528;2024-01-30T10:00:12;9.30;;;4.50;;
80637;SDS011;69991;51.760;19.528;2024-01-30T10:02:42;9.20;;;4.50;;
80637;SDS011;69991;51.760;19.528;2024-01-30T10:05:11;20.70;;;8.70;;
80637;SDS011;69991;51.760;19.528;2024-01-30T10:07:49;10.10;;;4.80;;
80637;SDS011;69991;51.760;19.528;2024-01-30T10:10:19;12.00;;;5.70;;
80637;SDS011;69991;51.760;19.528;2024-01-30T10:12:51;8.70;;;4.30;;
80637;SDS011;69991;51.760;19.528;2024-01-30T10:15:20;10.10;;;4.60;;
80637;SDS011;69991;51.760;19.528;2024-01-30T10:17:49;11.40;;;4.70;;
80637;SDS011;69991;51.760;19.528;2024-01-30T10:20:18;10.30;;;4.70;;
80637;SDS011;69991;51.760;19.528;2024-01-30T10:22:49;8.90;;;4.30;;
80637;SDS011;69991;51.760;19.528;2024-01-30T10:25:17;8.50;;;4.50;;
80637;SDS011;69991;51.760;19.528;2024-01-30T10:27:47;9.50;;;4.20;;
80637;SDS011;69991;51.760;19.528;2024-01-30T10:30:22;10.80;;;4.10;;
80637;SDS011;69991;51.760;19.528;2024-01-30T10:32:51;7.70;;;3.80;;
80637;SDS011;69991;51.760;19.528;2024-01-30T10:35:20;10.00;;;4.80;;
80637;SDS011;69991;51.760;19.528;2024-01-30T10:37:49;8.30;;;4.30;;
80637;SDS011;69991;51.760;19.528;2024-01-30T10:40:18;10.20;;;4.30;;
80637;SDS011;69991;51.760;19.528;2024-01-30T10:42:50;8.60;;;4.30;;
80637;SDS011;69991;51.760;19.528;2024-01-30T10:45:24;10.50;;;4.80;;
80637;SDS011;69991;51.760;19.528;2024-01-30T10:50:27;10.20;;;4.50;;
80637;SDS011;69991;51.760;19.528;2024-01-30T10:52:56;10.90;;;4.80;;
80637;SDS011;69991;51.760;19.528;2024-01-30T10:55:27;8.30;;;4.10;;
80637;SDS011;69991;51.760;19.528;2024-01-30T10:57:57;9.70;;;4.20;;
80637;SDS011;69991;51.760;19.528;2024-01-30T11:00:28;9.00;;;4.40;;
80637;SDS011;69991;51.760;19.528;2024-01-30T11:02:57;12.00;;;4.20;;
80637;SDS011;69991;51.760;19.528;2024-01-30T11:05:27;10.80;;;4.50;;
80637;SDS011;69991;51.760;19.528;2024-01-30T11:08:13;10.80;;;4.40;;
80637;SDS011;69991;51.760;19.528;2024-01-30T11:10:48;11.40;;;5.30;;
80637;SDS011;69991;51.760;19.528;2024-01-30T11:13:18;10.90;;;5.10;;
80637;SDS011;69991;51.760;19.528;2024-01-30T11:15:49;10.80;;;4.80;;
80637;SDS011;69991;51.760;19.528;2024-01-30T11:18:25;8.60;;;4.00;;
80637;SDS011;69991;51.760;19.528;2024-01-30T11:20:58;11.00;;;4.70;;
80637;SDS011;69991;51.760;19.528;2024-01-30T11:23:30;10.80;;;4.70;;
80637;SDS011;69991;51.760;19.528;2024-01-30T11:25:59;13.30;;;6.60;;
80637;SDS011;69991;51.760;19.528;2024-01-30T11:28:32;12.30;;;5.20;;
80637;SDS011;69991;51.760;19.528;2024-01-30T11:31:04;9.30;;;4.70;;
80637;SDS011;69991;51.760;19.528;2024-01-30T11:33:34;9.50;;;3.80;;
80637;SDS011;69991;51.760;19.528;2024-01-30T11:36:04;8.80;;;3.90;;
80637;SDS011;69991;51.760;19.528;2024-01-30T11:41:04;8.50;;;4.20;;
80637;SDS011;69991;51.760;19.528;2024-01-30T11:43:34;9.60;;;4.50;;
80637;SDS011;69991;51.760;19.528;2024-01-30T11:46:08;9.10;;;4.30;;
80637;SDS011;69991;51.760;19.528;2024-01-30T11:48:38;7.10;;;3.50;;
80637;SDS011;69991;51.760;19.528;2024-01-30T11:51:07;9.20;;;4.50;;
80637;SDS011;69991;51.760;19.528;2024-01-30T11:53:36;9.20;;;4.00;;
80637;SDS011;69991;51.760;19.528;2024-01-30T11:56:08;9.40;;;4.00;;
80637;SDS011;69991;51.760;19.528;2024-01-30T11:58:37;9.10;;;4.30;;
80637;SDS011;69991;51.760;19.528;2024-01-30T12:01:07;9.70;;;4.40;;
80637;SDS011;69991;51.760;19.528;2024-01-30T12:03:36;7.50;;;3.90;;
80637;SDS011;69991;51.760;19.528;2024-01-30T12:06:05;9.90;;;4.60;;
80637;SDS011;69991;51.760;19.528;2024-01-30T12:08:35;8.50;;;4.00;;
80637;SDS011;69991;51.760;19.528;2024-01-30T12:11:06;9.50;;;5.00;;
80637;SDS011;69991;51.760;19.528;2024-01-30T12:13:35;7.90;;;4.30;;
80637;SDS011;69991;51.760;19.528;2024-01-30T12:16:06;9.60;;;4.00;;
80637;SDS011;69991;51.760;19.528;2024-01-30T12:18:35;10.60;;;3.80;;
80637;SDS011;69991;51.760;19.528;2024-01-30T12:21:04;8.00;;;3.80;;
80637;SDS011;69991;51.760;19.528;2024-01-30T12:23:33;8.10;;;3.80;;
80637;SDS011;69991;51.760;19.528;2024-01-30T12:26:03;8.50;;;4.10;;
80637;SDS011;69991;51.760;19.528;2024-01-30T12:28:35;9.70;;;4.00;;
80637;SDS011;69991;51.760;19.528;2024-01-30T12:31:04;10.50;;;4.40;;
80637;SDS011;69991;51.760;19.528;2024-01-30T12:33:33;8.40;;;3.80;;
80637;SDS011;69991;51.760;19.528;2024-01-30T12:36:05;9.10;;;3.80;;
80637;SDS011;69991;51.760;19.528;2024-01-30T12:38:34;9.90;;;3.90;;
80637;SDS011;69991;51.760;19.528;2024-01-30T12:41:03;8.40;;;4.30;;
80637;SDS011;69991;51.760;19.528;2024-01-30T12:43:33;8.00;;;3.90;;
80637;SDS011;69991;51.760;19.528;2024-01-30T12:46:07;9.80;;;4.10;;
80637;SDS011;69991;51.760;19.528;2024-01-30T12:48:36;8.10;;;4.30;;
80637;SDS011;69991;51.760;19.528;2024-01-30T12:51:05;8.70;;;3.70;;
80637;SDS011;69991;51.760;19.528;2024-01-30T12:53:34;8.50;;;4.30;;
80637;SDS011;69991;51.760;19.528;2024-01-30T12:56:03;7.80;;;4.10;;
80637;SDS011;69991;51.760;19.528;2024-01-30T12:58:32;8.40;;;4.10;;
80637;SDS011;69991;51.760;19.528;2024-01-30T13:01:02;10.00;;;3.80;;
80637;SDS011;69991;51.760;19.528;2024-01-30T13:03:31;10.20;;;4.00;;
80637;SDS011;69991;51.760;19.528;2024-01-30T13:06:04;9.20;;;4.20;;
80637;SDS011;69991;51.760;19.528;2024-01-30T13:08:33;8.70;;;3.90;;
80637;SDS011;69991;51.760;19.528;2024-01-30T13:11:02;11.10;;;5.10;;
80637;SDS011;69991;51.760;19.528;2024-01-30T13:13:31;9.30;;;4.40;;
80637;SDS011;69991;51.760;19.528;2024-01-30T13:16:00;8.50;;;4.00;;
80637;SDS011;69991;51.760;19.528;2024-01-30T13:18:29;8.60;;;3.80;;
80637;SDS011;69991;51.760;19.528;2024-01-30T13:20:58;9.00;;;4.00;;
80637;SDS011;69991;51.760;19.528;2024-01-30T13:23:27;8.90;;;4.10;;
80637;SDS011;69991;51.760;19.528;2024-01-30T13:25:56;8.80;;;4.30;;
80637;SDS011;69991;51.760;19.528;2024-01-30T13:28:27;8.90;;;4.20;;
80637;SDS011;69991;51.760;19.528;2024-01-30T13:30:56;9.10;;;4.20;;
80637;SDS011;69991;51.760;19.528;2024-01-30T13:33:27;9.80;;;4.40;;
80637;SDS011;69991;51.760;19.528;2024-01-30T13:35:56;8.60;;;4.10;;
80637;SDS011;69991;51.760;19.528;2024-01-30T13:38:25;9.10;;;3.90;;
80637;SDS011;69991;51.760;19.528;2024-01-30T13:40:55;9.10;;;3.80;;
80637;SDS011;69991;51.760;19.528;2024-01-30T13:43:24;11.90;;;4.70;;
80637;SDS011;69991;51.760;19.528;2024-01-30T13:45:53;10.50;;;5.00;;
80637;SDS011;69991;51.760;19.528;2024-01-30T13:48:22;9.40;;;4.70;;
80637;SDS011;69991;51.760;19.528;2024-01-30T13:50:51;9.50;;;4.90;;
80637;SDS011;69991;51.760;19.528;2024-01-30T13:53:22;9.40;;;4.80;;
80637;SDS011;69991;51.760;19.528;2024-01-30T13:55:51;8.10;;;4.30;;
80637;SDS011;69991;51.760;19.528;2024-01-30T13:58:21;10.50;;;4.90;;
80637;SDS011;69991;51.760;19.528;2024-01-30T14:00:51;9.10;;;4.40;;
80637;SDS011;69991;51.760;19.528;2024-01-30T14:03:21;9.50;;;3.90;;
80637;SDS011;69991;51.760;19.528;2024-01-30T14:05:50;11.00;;;4.50;;
80637;SDS011;69991;51.760;19.528;2024-01-30T14:08:19;12.10;;;4.30;;
80637;SDS011;69991;51.760;19.528;2024-01-30T14:10:50;8.80;;;4.20;;
80637;SDS011;69991;51.760;19.528;2024-01-30T14:13:19;7.60;;;4.20;;
80637;SDS011;69991;51.760;19.528;2024-01-30T14:15:48;10.90;;;4.60;;
80637;SDS011;69991;51.760;19.528;2024-01-30T14:18:18;8.50;;;4.60;;
80637;SDS011;69991;51.760;19.528;2024-01-30T14:20:47;9.70;;;4.80;;
80637;SDS011;69991;51.760;19.528;2024-01-30T14:23:17;7.50;;;4.10;;
80637;SDS011;69991;51.760;19.528;2024-01-30T14:25:46;8.40;;;4.00;;
80637;SDS011;69991;51.760;19.528;2024-01-30T14:28:15;9.80;;;4.40;;
80637;SDS011;69991;51.760;19.528;2024-01-30T14:30:44;8.30;;;4.30;;
80637;SDS011;69991;51.760;19.528;2024-01-30T14:33:13;10.30;;;4.40;;
80637;SDS011;69991;51.760;19.528;2024-01-30T14:35:42;8.60;;;4.30;;
80637;SDS011;69991;51.760;19.528;2024-01-30T14:38:11;10.00;;;4.40;;
80637;SDS011;69991;51.760;19.528;2024-01-30T14:40:41;11.40;;;4.60;;
80637;SDS011;69991;51.760;19.528;2024-01-30T14:43:10;11.40;;;5.10;;
80637;SDS011;69991;51.760;19.528;2024-01-30T14:45:41;10.30;;;4.60;;
80637;SDS011;69991;51.760;19.528;2024-01-30T14:48:11;10.40;;;5.40;;
80637;SDS011;69991;51.760;19.528;2024-01-30T14:50:46;9.50;;;5.10;;
80637;SDS011;69991;51.760;19.528;2024-01-30T14:53:15;9.80;;;4.70;;
80637;SDS011;69991;51.760;19.528;2024-01-30T14:55:44;9.50;;;4.60;;
80637;SDS011;69991;51.760;19.528;2024-01-30T14:58:13;12.40;;;6.20;;
80637;SDS011;69991;51.760;19.528;2024-01-30T15:00:42;11.40;;;5.60;;
80637;SDS011;69991;51.760;19.528;2024-01-30T15:03:12;10.10;;;5.80;;
80637;SDS011;69991;51.760;19.528;2024-01-30T15:05:41;16.90;;;9.10;;
80637;SDS011;69991;51.760;19.528;2024-01-30T15:08:10;12.50;;;5.80;;
80637;SDS011;69991;51.760;19.528;2024-01-30T15:10:39;9.10;;;4.70;;
80637;SDS011;69991;51.760;19.528;2024-01-30T15:13:08;11.50;;;4.80;;
80637;SDS011;69991;51.760;19.528;2024-01-30T15:15:37;10.30;;;4.60;;
80637;SDS011;69991;51.760;19.528;2024-01-30T15:18:06;11.00;;;4.80;;
80637;SDS011;69991;51.760;19.528;2024-01-30T15:20:40;9.30;;;4.40;;
80637;SDS011;69991;51.760;19.528;2024-01-30T15:23:09;10.20;;;4.20;;
80637;SDS011;69991;51.760;19.528;2024-01-30T15:25:38;9.10;;;4.20;;
80637;SDS011;69991;51.760;19.528;2024-01-30T15:28:07;9.40;;;4.50;;
80637;SDS011;69991;51.760;19.528;2024-01-30T15:30:36;9.40;;;4.50;;
80637;SDS011;69991;51.760;19.528;2024-01-30T15:33:05;10.00;;;5.30;;
80637;SDS011;69991;51.760;19.528;2024-01-30T15:35:34;8.90;;;4.40;;
80637;SDS011;69991;51.760;19.528;2024-01-30T15:38:03;7.90;;;4.80;;